createdAt,value
2017-02-17T00:00:08.228Z,0
2017-02-17T00:01:17.547Z,0
2017-02-17T00:02:26.988Z,0
2017-02-17T00:03:36.738Z,0
2017-02-17T00:04:46.494Z,0
2017-02-17T00:05:56.661Z,0
2017-02-17T00:07:05.998Z,0
2017-02-17T00:08:15.345Z,0
2017-02-17T00:09:24.687Z,0
2017-02-17T00:10:33.606Z,0
2017-02-17T00:11:43.346Z,0
2017-02-17T00:12:52.679Z,0
2017-02-17T00:14:01.918Z,0
2017-02-17T00:15:11.661Z,0
2017-02-17T00:16:20.585Z,0
2017-02-17T00:17:29.929Z,0
2017-02-17T00:18:39.706Z,0
2017-02-17T00:19:49.259Z,0
2017-02-17T00:20:58.614Z,0
2017-02-17T00:22:07.538Z,0
2017-02-17T00:23:16.905Z,0
2017-02-17T00:24:26.228Z,0
2017-02-17T00:25:35.805Z,0
2017-02-17T00:26:44.721Z,0
2017-02-17T00:27:53.644Z,0
2017-02-17T00:29:02.553Z,0
2017-02-17T00:30:11.889Z,0
2017-02-17T00:31:21.368Z,0
2017-02-17T00:32:31.110Z,0
2017-02-17T00:33:40.038Z,0
2017-02-17T00:34:48.964Z,0
2017-02-17T00:35:58.283Z,0
2017-02-17T00:37:07.328Z,0
2017-02-17T00:38:16.656Z,0
2017-02-17T00:39:26.808Z,0
2017-02-17T00:40:36.133Z,0
2017-02-17T00:41:45.892Z,0
2017-02-17T00:42:55.461Z,0
2017-02-17T00:44:04.374Z,0
2017-02-17T00:45:13.692Z,0
2017-02-17T00:46:22.604Z,0
2017-02-17T00:47:31.931Z,0
2017-02-17T00:48:41.423Z,0
2017-02-17T00:49:50.754Z,0
2017-02-17T00:51:00.090Z,0
2017-02-17T00:52:09.849Z,0
2017-02-17T00:53:19.169Z,0
2017-02-17T00:54:29.352Z,0
2017-02-17T00:55:39.112Z,0
2017-02-17T00:56:48.453Z,0
2017-02-17T00:57:58.186Z,0
2017-02-17T00:59:08.335Z,0
2017-02-17T01:00:17.853Z,0
2017-02-17T01:01:26.792Z,0
2017-02-17T01:02:36.525Z,0
2017-02-17T01:03:46.249Z,0
2017-02-17T01:04:55.579Z,0
2017-02-17T01:06:05.566Z,0
2017-02-17T01:07:14.515Z,0
2017-02-17T01:08:23.838Z,0
2017-02-17T01:09:33.562Z,0
2017-02-17T01:10:43.300Z,0
2017-02-17T01:11:53.091Z,0
2017-02-17T01:13:02.818Z,0
2017-02-17T01:14:12.143Z,0
2017-02-17T01:15:21.874Z,0
2017-02-17T01:16:31.190Z,0
2017-02-17T01:17:40.631Z,0
2017-02-17T01:18:50.809Z,0
2017-02-17T01:20:00.134Z,0
2017-02-17T01:21:09.866Z,0
2017-02-17T01:22:18.775Z,0
2017-02-17T01:23:28.255Z,0
2017-02-17T01:24:37.177Z,0
2017-02-17T01:25:46.526Z,0
2017-02-17T01:26:55.447Z,0
2017-02-17T01:28:04.778Z,0
2017-02-17T01:29:15.083Z,0
2017-02-17T01:30:24.820Z,0
2017-02-17T01:31:34.557Z,0
2017-02-17T01:32:44.300Z,0
2017-02-17T01:33:53.616Z,0
2017-02-17T01:35:03.402Z,0
2017-02-17T01:36:12.732Z,0
2017-02-17T01:37:22.867Z,0
2017-02-17T01:38:33.015Z,0
2017-02-17T01:39:42.341Z,0
2017-02-17T01:40:52.128Z,0
2017-02-17T01:42:01.452Z,0
2017-02-17T01:43:10.779Z,0
2017-02-17T01:44:20.531Z,0
2017-02-17T01:45:29.441Z,0
2017-02-17T01:46:39.326Z,0
2017-02-17T01:47:48.687Z,0
2017-02-17T01:48:57.598Z,0
2017-02-17T01:50:07.737Z,0
2017-02-17T01:51:17.458Z,0
2017-02-17T01:52:26.846Z,0
2017-02-17T01:53:36.991Z,0
2017-02-17T01:54:46.742Z,0
2017-02-17T01:55:56.094Z,0
2017-02-17T01:57:06.231Z,0
2017-02-17T01:58:16.366Z,0
2017-02-17T01:59:26.117Z,0
2017-02-17T02:00:35.463Z,0
2017-02-17T02:01:44.785Z,0
2017-02-17T02:02:54.114Z,0
2017-02-17T02:04:03.953Z,0
2017-02-17T02:05:13.301Z,0
2017-02-17T02:06:22.647Z,0
2017-02-17T02:07:31.961Z,0
2017-02-17T02:08:41.688Z,0
2017-02-17T02:09:50.756Z,0
2017-02-17T02:10:59.663Z,0
2017-02-17T02:12:08.580Z,0
2017-02-17T02:13:17.904Z,0
2017-02-17T02:14:27.657Z,0
2017-02-17T02:15:37.250Z,0
2017-02-17T02:16:46.565Z,0
2017-02-17T02:17:56.291Z,0
2017-02-17T02:19:05.610Z,0
2017-02-17T02:20:14.931Z,0
2017-02-17T02:21:23.856Z,0
2017-02-17T02:22:33.581Z,0
2017-02-17T02:23:43.723Z,0
2017-02-17T02:24:53.038Z,0
2017-02-17T02:26:02.772Z,0
2017-02-17T02:27:12.711Z,0
2017-02-17T02:28:22.029Z,0
2017-02-17T02:29:30.964Z,0
2017-02-17T02:30:41.132Z,0
2017-02-17T02:31:51.291Z,0
2017-02-17T02:33:01.066Z,0
2017-02-17T02:34:10.384Z,0
2017-02-17T02:35:20.123Z,0
2017-02-17T02:36:29.867Z,0
2017-02-17T02:37:39.609Z,0
2017-02-17T02:38:49.069Z,0
2017-02-17T02:39:58.804Z,0
2017-02-17T02:41:07.729Z,0
2017-02-17T02:42:16.652Z,0
2017-02-17T02:43:26.376Z,0
2017-02-17T02:44:36.667Z,0
2017-02-17T02:45:45.590Z,0
2017-02-17T02:46:55.309Z,0
2017-02-17T02:48:04.638Z,0
2017-02-17T02:49:15.182Z,0
2017-02-17T02:50:24.518Z,0
2017-02-17T02:51:33.451Z,0
2017-02-17T02:52:42.775Z,0
2017-02-17T02:53:52.106Z,0
2017-02-17T02:55:01.867Z,0
2017-02-17T02:56:10.893Z,0
2017-02-17T02:57:20.248Z,0
2017-02-17T02:58:30.378Z,0
2017-02-17T02:59:40.103Z,0
2017-02-17T03:00:49.459Z,0
2017-02-17T03:01:59.356Z,0
2017-02-17T03:03:09.103Z,0
2017-02-17T03:04:18.431Z,0
2017-02-17T03:05:27.777Z,0
2017-02-17T03:06:37.113Z,0
2017-02-17T03:07:46.599Z,0
2017-02-17T03:08:55.943Z,0
2017-02-17T03:10:05.689Z,0
2017-02-17T03:11:15.039Z,0
2017-02-17T03:12:24.363Z,0
2017-02-17T03:13:35.054Z,0
2017-02-17T03:14:44.427Z,0
2017-02-17T03:15:54.169Z,0
2017-02-17T03:17:03.085Z,0
2017-02-17T03:18:12.812Z,0
2017-02-17T03:19:22.383Z,0
2017-02-17T03:20:32.113Z,0
2017-02-17T03:21:41.428Z,0
2017-02-17T03:22:51.613Z,0
2017-02-17T03:24:01.748Z,0
2017-02-17T03:25:11.259Z,0
2017-02-17T03:26:20.605Z,0
2017-02-17T03:27:29.945Z,0
2017-02-17T03:28:39.275Z,0
2017-02-17T03:29:48.592Z,0
2017-02-17T03:30:57.708Z,0
2017-02-17T03:32:07.863Z,0
2017-02-17T03:33:17.210Z,0
2017-02-17T03:34:26.542Z,0
2017-02-17T03:35:35.871Z,0
2017-02-17T03:36:45.402Z,0
2017-02-17T03:37:54.733Z,0
2017-02-17T03:39:04.904Z,0
2017-02-17T03:40:14.219Z,0
2017-02-17T03:41:23.139Z,0
2017-02-17T03:42:32.174Z,0
2017-02-17T03:43:42.308Z,0
2017-02-17T03:44:52.453Z,0
2017-02-17T03:46:01.382Z,0
2017-02-17T03:47:11.133Z,0
2017-02-17T03:48:21.024Z,0
2017-02-17T03:49:30.362Z,0
2017-02-17T03:50:39.289Z,0
2017-02-17T03:51:48.210Z,0
2017-02-17T03:52:57.130Z,0
2017-02-17T03:54:06.671Z,0
2017-02-17T03:55:15.586Z,0
2017-02-17T03:56:25.333Z,0
2017-02-17T03:57:34.258Z,0
2017-02-17T03:58:44.423Z,0
2017-02-17T03:59:54.382Z,0
2017-02-17T04:01:04.521Z,0
2017-02-17T04:02:13.431Z,0
2017-02-17T04:03:22.339Z,0
2017-02-17T04:04:32.070Z,0
2017-02-17T04:05:42.369Z,0
2017-02-17T04:06:51.284Z,0
2017-02-17T04:08:00.629Z,0
2017-02-17T04:09:09.948Z,0
2017-02-17T04:10:18.860Z,0
2017-02-17T04:11:27.855Z,0
2017-02-17T04:12:37.577Z,0
2017-02-17T04:13:46.892Z,0
2017-02-17T04:14:56.619Z,0
2017-02-17T04:16:05.549Z,0
2017-02-17T04:17:15.837Z,0
2017-02-17T04:18:25.164Z,0
2017-02-17T04:19:34.888Z,0
2017-02-17T04:20:44.223Z,0
2017-02-17T04:21:53.141Z,0
2017-02-17T04:23:02.931Z,0
2017-02-17T04:24:12.251Z,0
2017-02-17T04:25:21.580Z,0
2017-02-17T04:26:30.516Z,0
2017-02-17T04:27:40.254Z,0
2017-02-17T04:28:49.724Z,0
2017-02-17T04:29:59.463Z,0
2017-02-17T04:31:08.794Z,0
2017-02-17T04:32:17.703Z,0
2017-02-17T04:33:26.615Z,0
2017-02-17T04:34:36.000Z,0
2017-02-17T04:35:45.741Z,0
2017-02-17T04:36:56.279Z,0
2017-02-17T04:38:05.212Z,0
2017-02-17T04:39:14.581Z,0
2017-02-17T04:40:23.963Z,0
2017-02-17T04:41:33.304Z,0
2017-02-17T04:42:42.222Z,0
2017-02-17T04:43:52.364Z,0
2017-02-17T04:45:01.272Z,0
2017-02-17T04:46:11.406Z,0
2017-02-17T04:47:21.130Z,0
2017-02-17T04:48:30.494Z,0
2017-02-17T04:49:39.868Z,0
2017-02-17T04:50:50.432Z,0
2017-02-17T04:51:59.555Z,0
2017-02-17T04:53:09.275Z,0
2017-02-17T04:54:18.186Z,0
2017-02-17T04:55:27.499Z,0
2017-02-17T04:56:36.419Z,0
2017-02-17T04:57:45.836Z,0
2017-02-17T04:58:55.177Z,0
2017-02-17T05:00:04.519Z,0
2017-02-17T05:01:13.463Z,0
2017-02-17T05:02:22.782Z,0
2017-02-17T05:03:32.716Z,0
2017-02-17T05:04:41.621Z,0
2017-02-17T05:05:51.343Z,0
2017-02-17T05:07:00.262Z,0
2017-02-17T05:08:10.403Z,0
2017-02-17T05:09:19.361Z,0
2017-02-17T05:10:28.695Z,0
2017-02-17T05:11:38.824Z,0
2017-02-17T05:12:48.153Z,0
2017-02-17T05:13:57.489Z,0
2017-02-17T05:15:06.956Z,0
2017-02-17T05:16:16.688Z,0
2017-02-17T05:17:26.011Z,0
2017-02-17T05:18:35.342Z,0
2017-02-17T05:19:45.087Z,0
2017-02-17T05:20:54.479Z,0
2017-02-17T05:22:04.228Z,0
2017-02-17T05:23:13.969Z,0
2017-02-17T05:24:23.301Z,0
2017-02-17T05:25:32.629Z,0
2017-02-17T05:26:42.531Z,0
2017-02-17T05:27:51.869Z,0
2017-02-17T05:29:00.805Z,0
2017-02-17T05:30:09.738Z,0
2017-02-17T05:31:19.121Z,0
2017-02-17T05:32:28.555Z,0
2017-02-17T05:33:37.887Z,0
2017-02-17T05:34:47.616Z,0
2017-02-17T05:35:57.351Z,0
2017-02-17T05:37:06.273Z,0
2017-02-17T05:38:15.748Z,0
2017-02-17T05:39:25.888Z,0
2017-02-17T05:40:35.205Z,0
2017-02-17T05:41:44.526Z,0
2017-02-17T05:42:53.857Z,0
2017-02-17T05:44:04.250Z,0
2017-02-17T05:45:13.569Z,0
2017-02-17T05:46:23.299Z,0
2017-02-17T05:47:32.236Z,0
2017-02-17T05:48:41.962Z,0
2017-02-17T05:49:51.699Z,0
2017-02-17T05:51:01.848Z,0
2017-02-17T05:52:10.775Z,0
2017-02-17T05:53:20.500Z,0
2017-02-17T05:54:29.441Z,0
2017-02-17T05:55:38.414Z,0
2017-02-17T05:56:48.160Z,0
2017-02-17T05:57:57.884Z,0
2017-02-17T05:59:06.796Z,0
2017-02-17T06:00:16.585Z,0
2017-02-17T06:01:26.391Z,0
2017-02-17T06:02:35.757Z,0
2017-02-17T06:03:45.100Z,0
2017-02-17T06:04:54.449Z,0
2017-02-17T06:06:03.768Z,0
2017-02-17T06:07:12.824Z,0
2017-02-17T06:08:21.728Z,0
2017-02-17T06:09:30.655Z,0
2017-02-17T06:10:40.401Z,0
2017-02-17T06:11:49.329Z,0
2017-02-17T06:12:58.457Z,0
2017-02-17T06:14:07.793Z,0
2017-02-17T06:15:16.726Z,4
2017-02-17T06:16:26.883Z,4
2017-02-17T06:17:35.827Z,0
2017-02-17T06:18:45.412Z,4
2017-02-17T06:19:54.744Z,4
2017-02-17T06:21:04.089Z,4
2017-02-17T06:22:14.654Z,4
2017-02-17T06:23:23.563Z,4
2017-02-17T06:24:33.367Z,4
2017-02-17T06:25:42.282Z,4
2017-02-17T06:26:52.067Z,8
2017-02-17T06:28:01.818Z,8
2017-02-17T06:29:11.166Z,12
2017-02-17T06:30:20.071Z,16
2017-02-17T06:31:29.805Z,20
2017-02-17T06:32:39.126Z,28
2017-02-17T06:33:48.452Z,36
2017-02-17T06:34:57.401Z,36
2017-02-17T06:36:06.320Z,40
2017-02-17T06:37:15.642Z,44
2017-02-17T06:38:24.557Z,44
2017-02-17T06:39:33.907Z,44
2017-02-17T06:40:43.641Z,56
2017-02-17T06:41:52.963Z,48
2017-02-17T06:43:02.279Z,56
2017-02-17T06:44:11.612Z,64
2017-02-17T06:45:20.933Z,80
2017-02-17T06:46:30.247Z,88
2017-02-17T06:47:39.214Z,112
2017-02-17T06:48:48.546Z,116
2017-02-17T06:49:58.041Z,124
2017-02-17T06:51:07.767Z,116
2017-02-17T06:52:17.530Z,120
2017-02-17T06:53:26.458Z,112
2017-02-17T06:54:35.791Z,112
2017-02-17T06:55:45.176Z,120
2017-02-17T06:56:54.108Z,136
2017-02-17T06:58:03.048Z,140
2017-02-17T06:59:12.385Z,148
2017-02-17T07:00:21.303Z,148
2017-02-17T07:01:31.066Z,164
2017-02-17T07:02:39.975Z,172
2017-02-17T07:03:50.141Z,188
2017-02-17T07:04:59.918Z,204
2017-02-17T07:06:09.694Z,240
2017-02-17T07:07:19.057Z,240
2017-02-17T07:08:28.406Z,248
2017-02-17T07:09:37.733Z,272
2017-02-17T07:10:47.076Z,244
2017-02-17T07:11:56.419Z,240
2017-02-17T07:13:05.856Z,228
2017-02-17T07:14:15.582Z,216
2017-02-17T07:15:25.322Z,220
2017-02-17T07:16:35.074Z,260
2017-02-17T07:17:44.830Z,268
2017-02-17T07:18:54.638Z,252
2017-02-17T07:20:03.981Z,304
2017-02-17T07:21:13.305Z,292
2017-02-17T07:22:22.226Z,276
2017-02-17T07:23:31.962Z,280
2017-02-17T07:24:41.696Z,292
2017-02-17T07:25:51.038Z,280
2017-02-17T07:27:00.368Z,268
2017-02-17T07:28:09.697Z,260
2017-02-17T07:29:19.448Z,272
2017-02-17T07:30:29.447Z,264
2017-02-17T07:31:38.786Z,276
2017-02-17T07:32:48.101Z,244
2017-02-17T07:33:57.876Z,212
2017-02-17T07:35:08.336Z,196
2017-02-17T07:36:17.713Z,212
2017-02-17T07:37:26.681Z,220
2017-02-17T07:38:36.639Z,276
2017-02-17T07:39:46.104Z,292
2017-02-17T07:40:55.503Z,300
2017-02-17T07:42:05.292Z,368
2017-02-17T07:43:15.036Z,480
2017-02-17T07:44:23.950Z,632
2017-02-17T07:45:32.864Z,644
2017-02-17T07:46:42.200Z,804
2017-02-17T07:47:51.595Z,932
2017-02-17T07:49:01.329Z,1028
2017-02-17T07:50:11.083Z,972
2017-02-17T07:51:20.093Z,1164
2017-02-17T07:52:29.446Z,1168
2017-02-17T07:53:38.507Z,1088
2017-02-17T07:54:47.860Z,1200
2017-02-17T07:55:56.793Z,1548
2017-02-17T07:57:06.144Z,1416
2017-02-17T07:58:15.896Z,1464
2017-02-17T07:59:25.373Z,1600
2017-02-17T08:00:34.694Z,1592
2017-02-17T08:01:44.851Z,1764
2017-02-17T08:02:54.178Z,1736
2017-02-17T08:04:04.350Z,1740
2017-02-17T08:05:13.982Z,1580
2017-02-17T08:06:23.711Z,1632
2017-02-17T08:07:33.441Z,1584
2017-02-17T08:08:42.775Z,1588
2017-02-17T08:09:52.088Z,1584
2017-02-17T08:11:01.903Z,1376
2017-02-17T08:12:11.644Z,1588
2017-02-17T08:13:20.967Z,1624
2017-02-17T08:14:29.897Z,1476
2017-02-17T08:15:39.223Z,1160
2017-02-17T08:16:48.204Z,904
2017-02-17T08:17:57.540Z,940
2017-02-17T08:19:07.270Z,1140
2017-02-17T08:20:16.602Z,1304
2017-02-17T08:21:26.330Z,1264
2017-02-17T08:22:35.445Z,1244
2017-02-17T08:23:45.170Z,1280
2017-02-17T08:24:54.495Z,1532
2017-02-17T08:26:04.239Z,1688
2017-02-17T08:27:13.186Z,1872
2017-02-17T08:28:22.672Z,1504
2017-02-17T08:29:32.830Z,1204
2017-02-17T08:30:42.147Z,1228
2017-02-17T08:31:51.494Z,1512
2017-02-17T08:33:01.227Z,2200
2017-02-17T08:34:11.116Z,2880
2017-02-17T08:35:20.435Z,2856
2017-02-17T08:36:30.166Z,2436
2017-02-17T08:37:39.085Z,2184
2017-02-17T08:38:48.422Z,2476
2017-02-17T08:39:57.803Z,2568
2017-02-17T08:41:07.557Z,3364
2017-02-17T08:42:16.881Z,3432
2017-02-17T08:43:25.809Z,3848
2017-02-17T08:44:35.139Z,3904
2017-02-17T08:45:44.359Z,3748
2017-02-17T08:46:53.684Z,3636
2017-02-17T08:48:03.004Z,4004
2017-02-17T08:49:12.747Z,3940
2017-02-17T08:50:22.496Z,4064
2017-02-17T08:51:32.317Z,4384
2017-02-17T08:52:42.857Z,4652
2017-02-17T08:53:52.596Z,4000
2017-02-17T08:55:01.530Z,3904
2017-02-17T08:56:10.863Z,3312
2017-02-17T08:57:21.053Z,2796
2017-02-17T08:58:30.370Z,2712
2017-02-17T08:59:40.108Z,2892
2017-02-17T09:00:49.019Z,3372
2017-02-17T09:01:57.931Z,4040
2017-02-17T09:03:07.737Z,4140
2017-02-17T09:04:16.665Z,4308
2017-02-17T09:05:25.573Z,4792
2017-02-17T09:06:34.894Z,5996
2017-02-17T09:07:43.822Z,6076
2017-02-17T09:08:53.156Z,5836
2017-02-17T09:10:02.501Z,5064
2017-02-17T09:11:12.250Z,5412
2017-02-17T09:12:21.996Z,5880
2017-02-17T09:13:31.745Z,5968
2017-02-17T09:14:40.806Z,5400
2017-02-17T09:15:49.727Z,4332
2017-02-17T09:16:59.054Z,3668
2017-02-17T09:18:08.794Z,3932
2017-02-17T09:19:17.699Z,4088
2017-02-17T09:20:27.871Z,4916
2017-02-17T09:21:37.646Z,6148
2017-02-17T09:22:47.785Z,5588
2017-02-17T09:23:57.118Z,4168
2017-02-17T09:25:06.862Z,4732
2017-02-17T09:26:16.362Z,5320
2017-02-17T09:27:25.290Z,6036
2017-02-17T09:28:34.615Z,5124
2017-02-17T09:29:43.951Z,4384
2017-02-17T09:30:53.684Z,4168
2017-02-17T09:32:03.003Z,4056
2017-02-17T09:33:12.737Z,3324
2017-02-17T09:34:22.464Z,3492
2017-02-17T09:35:32.213Z,3448
2017-02-17T09:36:41.553Z,3096
2017-02-17T09:37:50.540Z,3508
2017-02-17T09:38:59.885Z,3296
2017-02-17T09:40:09.241Z,3644
2017-02-17T09:41:18.978Z,4420
2017-02-17T09:42:28.714Z,6836
2017-02-17T09:43:38.496Z,6940
2017-02-17T09:44:47.827Z,6152
2017-02-17T09:45:57.565Z,5024
2017-02-17T09:47:06.882Z,4348
2017-02-17T09:48:16.616Z,3832
2017-02-17T09:49:26.440Z,4040
2017-02-17T09:50:35.767Z,4340
2017-02-17T09:51:44.711Z,4220
2017-02-17T09:52:54.094Z,5072
2017-02-17T09:54:03.851Z,5840
2017-02-17T09:55:13.991Z,5440
2017-02-17T09:56:23.326Z,4780
2017-02-17T09:57:32.642Z,5132
2017-02-17T09:58:42.784Z,4940
2017-02-17T09:59:52.934Z,4384
2017-02-17T10:01:03.343Z,3852
2017-02-17T10:02:12.680Z,3624
2017-02-17T10:03:22.409Z,3936
2017-02-17T10:04:32.149Z,4012
2017-02-17T10:05:41.488Z,3908
2017-02-17T10:06:51.380Z,3460
2017-02-17T10:08:00.711Z,3368
2017-02-17T10:09:10.047Z,3688
2017-02-17T10:10:19.384Z,3968
2017-02-17T10:11:29.147Z,3944
2017-02-17T10:12:38.748Z,4456
2017-02-17T10:13:48.486Z,4128
2017-02-17T10:14:58.271Z,3464
2017-02-17T10:16:08.022Z,3892
2017-02-17T10:17:17.380Z,3924
2017-02-17T10:18:26.424Z,4020
2017-02-17T10:19:36.172Z,4600
2017-02-17T10:20:45.094Z,4596
2017-02-17T10:21:54.449Z,3960
2017-02-17T10:23:03.393Z,3396
2017-02-17T10:24:12.428Z,3256
2017-02-17T10:25:21.337Z,3836
2017-02-17T10:26:30.690Z,4456
2017-02-17T10:27:39.616Z,6092
2017-02-17T10:28:48.532Z,8868
2017-02-17T10:29:57.704Z,10472
2017-02-17T10:31:07.047Z,8204
2017-02-17T10:32:15.970Z,5920
2017-02-17T10:33:25.717Z,4304
2017-02-17T10:34:35.474Z,3632
2017-02-17T10:35:45.712Z,3680
2017-02-17T10:36:55.872Z,3300
2017-02-17T10:38:05.614Z,3052
2017-02-17T10:39:15.354Z,3616
2017-02-17T10:40:24.699Z,3724
2017-02-17T10:41:34.093Z,4048
2017-02-17T10:42:43.024Z,3940
2017-02-17T10:43:51.940Z,4168
2017-02-17T10:45:01.699Z,4508
2017-02-17T10:46:11.045Z,4544
2017-02-17T10:47:20.386Z,4000
2017-02-17T10:48:29.743Z,3252
2017-02-17T10:49:39.484Z,3040
2017-02-17T10:50:48.802Z,3108
2017-02-17T10:51:57.719Z,3296
2017-02-17T10:53:06.742Z,4032
2017-02-17T10:54:16.111Z,4492
2017-02-17T10:55:25.045Z,4056
2017-02-17T10:56:34.387Z,3260
2017-02-17T10:57:44.111Z,3720
2017-02-17T10:58:53.295Z,5128
2017-02-17T11:00:03.026Z,6284
2017-02-17T11:01:12.350Z,6976
2017-02-17T11:02:21.294Z,5116
2017-02-17T11:03:30.622Z,4292
2017-02-17T11:04:40.259Z,4168
2017-02-17T11:05:50.000Z,3716
2017-02-17T11:06:59.735Z,3592
2017-02-17T11:08:09.058Z,3332
2017-02-17T11:09:18.805Z,2860
2017-02-17T11:10:28.692Z,2660
2017-02-17T11:11:37.613Z,3488
2017-02-17T11:12:47.368Z,3284
2017-02-17T11:13:57.514Z,3700
2017-02-17T11:15:06.428Z,4332
2017-02-17T11:16:16.160Z,4368
2017-02-17T11:17:26.311Z,4384
2017-02-17T11:18:36.475Z,4312
2017-02-17T11:19:45.810Z,4484
2017-02-17T11:20:55.129Z,4032
2017-02-17T11:22:05.121Z,4280
2017-02-17T11:23:14.459Z,3904
2017-02-17T11:24:23.796Z,3644
2017-02-17T11:25:33.133Z,3012
2017-02-17T11:26:42.482Z,3276
2017-02-17T11:27:51.556Z,4840
2017-02-17T11:29:01.280Z,4160
2017-02-17T11:30:11.008Z,3792
2017-02-17T11:31:19.925Z,5004
2017-02-17T11:32:29.258Z,5364
2017-02-17T11:33:38.677Z,8424
2017-02-17T11:34:48.016Z,7800
2017-02-17T11:35:56.969Z,6200
2017-02-17T11:37:07.113Z,5316
2017-02-17T11:38:16.848Z,5424
2017-02-17T11:39:26.237Z,4876
2017-02-17T11:40:35.573Z,6108
2017-02-17T11:41:44.494Z,6776
2017-02-17T11:42:54.243Z,7648
2017-02-17T11:44:03.613Z,7784
2017-02-17T11:45:13.511Z,7440
2017-02-17T11:46:22.850Z,6520
2017-02-17T11:47:32.588Z,6224
2017-02-17T11:48:42.339Z,5140
2017-02-17T11:49:51.676Z,4188
2017-02-17T11:51:01.560Z,3892
2017-02-17T11:52:10.909Z,3596
2017-02-17T11:53:19.835Z,3072
2017-02-17T11:54:28.764Z,2732
2017-02-17T11:55:37.697Z,2496
2017-02-17T11:56:47.491Z,2444
2017-02-17T11:57:57.229Z,2432
2017-02-17T11:59:06.567Z,2436
2017-02-17T12:00:15.894Z,2968
2017-02-17T12:01:24.803Z,3028
2017-02-17T12:02:33.785Z,3548
2017-02-17T12:03:43.522Z,3704
2017-02-17T12:04:52.860Z,4272
2017-02-17T12:06:02.182Z,4940
2017-02-17T12:07:11.932Z,4796
2017-02-17T12:08:21.731Z,4700
2017-02-17T12:09:31.059Z,6020
2017-02-17T12:10:41.209Z,5096
2017-02-17T12:11:50.955Z,3896
2017-02-17T12:13:00.299Z,4376
2017-02-17T12:14:09.381Z,3996
2017-02-17T12:15:18.302Z,3888
2017-02-17T12:16:27.636Z,3956
2017-02-17T12:17:36.953Z,4428
2017-02-17T12:18:45.885Z,3396
2017-02-17T12:19:55.879Z,3644
2017-02-17T12:21:05.201Z,3528
2017-02-17T12:22:14.542Z,3624
2017-02-17T12:23:23.873Z,3728
2017-02-17T12:24:32.799Z,3424
2017-02-17T12:25:41.793Z,2516
2017-02-17T12:26:51.127Z,2396
2017-02-17T12:28:00.454Z,3180
2017-02-17T12:29:09.796Z,3652
2017-02-17T12:30:19.129Z,3888
2017-02-17T12:31:29.005Z,3424
2017-02-17T12:32:38.344Z,3632
2017-02-17T12:33:48.086Z,5012
2017-02-17T12:34:57.412Z,7580
2017-02-17T12:36:07.141Z,8892
2017-02-17T12:37:17.020Z,6876
2017-02-17T12:38:26.773Z,7616
2017-02-17T12:39:36.117Z,8816
2017-02-17T12:40:45.458Z,11580
2017-02-17T12:41:55.644Z,13540
2017-02-17T12:43:05.518Z,11896
2017-02-17T12:44:14.835Z,8328
2017-02-17T12:45:24.565Z,8596
2017-02-17T12:46:33.492Z,7940
2017-02-17T12:47:42.827Z,7392
2017-02-17T12:48:52.589Z,10332
2017-02-17T12:50:02.733Z,11132
2017-02-17T12:51:12.091Z,10496
2017-02-17T12:52:21.425Z,8356
2017-02-17T12:53:31.197Z,7064
2017-02-17T12:54:40.260Z,6884
2017-02-17T12:55:49.592Z,8340
2017-02-17T12:56:59.320Z,9380
2017-02-17T12:58:08.653Z,7040
2017-02-17T12:59:18.403Z,7804
2017-02-17T13:00:28.509Z,7972
2017-02-17T13:01:38.245Z,7356
2017-02-17T13:02:48.846Z,7188
2017-02-17T13:03:58.196Z,5812
2017-02-17T13:05:07.557Z,5824
2017-02-17T13:06:18.119Z,4212
2017-02-17T13:07:28.304Z,4384
2017-02-17T13:08:37.232Z,4984
2017-02-17T13:09:46.572Z,6008
2017-02-17T13:10:55.901Z,5140
2017-02-17T13:12:05.402Z,4508
2017-02-17T13:13:15.624Z,5856
2017-02-17T13:14:24.608Z,5148
2017-02-17T13:15:33.518Z,5592
2017-02-17T13:16:42.450Z,6012
2017-02-17T13:17:52.279Z,6228
2017-02-17T13:19:01.609Z,5860
2017-02-17T13:20:11.369Z,5044
2017-02-17T13:21:20.708Z,4316
2017-02-17T13:22:30.467Z,4528
2017-02-17T13:23:39.886Z,5496
2017-02-17T13:24:48.802Z,5988
2017-02-17T13:25:58.561Z,4120
2017-02-17T13:27:07.474Z,2956
2017-02-17T13:28:16.813Z,2732
2017-02-17T13:29:25.976Z,2944
2017-02-17T13:30:34.889Z,2936
2017-02-17T13:31:44.641Z,3184
2017-02-17T13:32:54.393Z,3968
2017-02-17T13:34:04.242Z,4200
2017-02-17T13:35:14.285Z,4076
2017-02-17T13:36:24.447Z,4248
2017-02-17T13:37:34.209Z,4340
2017-02-17T13:38:43.121Z,4172
2017-02-17T13:39:52.455Z,3864
2017-02-17T13:41:01.531Z,3772
2017-02-17T13:42:10.857Z,4196
2017-02-17T13:43:20.244Z,4200
2017-02-17T13:44:29.570Z,4056
2017-02-17T13:45:40.117Z,4340
2017-02-17T13:46:50.051Z,4136
2017-02-17T13:47:59.806Z,3628
2017-02-17T13:49:10.786Z,4100
2017-02-17T13:50:20.376Z,4380
2017-02-17T13:51:30.223Z,3804
2017-02-17T13:52:39.324Z,3296
2017-02-17T13:53:49.086Z,3052
2017-02-17T13:54:58.413Z,3720
2017-02-17T13:56:07.747Z,5164
2017-02-17T13:57:16.662Z,5508
2017-02-17T13:58:26.678Z,5248
2017-02-17T13:59:36.425Z,4672
2017-02-17T14:00:45.810Z,4244
2017-02-17T14:01:54.762Z,4308
2017-02-17T14:03:04.922Z,4488
2017-02-17T14:04:14.770Z,5420
2017-02-17T14:05:23.712Z,5884
2017-02-17T14:06:34.013Z,5864
2017-02-17T14:07:43.389Z,5772
2017-02-17T14:08:53.137Z,5028
2017-02-17T14:10:03.254Z,4532
2017-02-17T14:11:12.484Z,4848
2017-02-17T14:12:21.853Z,5644
2017-02-17T14:13:31.625Z,5652
2017-02-17T14:14:40.573Z,5888
2017-02-17T14:15:49.608Z,6924
2017-02-17T14:16:59.349Z,7652
2017-02-17T14:18:09.097Z,10600
2017-02-17T14:19:18.412Z,10852
2017-02-17T14:20:27.735Z,7860
2017-02-17T14:21:37.929Z,6860
2017-02-17T14:22:47.278Z,5952
2017-02-17T14:23:56.613Z,5836
2017-02-17T14:25:06.352Z,5368
2017-02-17T14:26:15.678Z,3936
2017-02-17T14:27:25.313Z,2864
2017-02-17T14:28:34.254Z,2096
2017-02-17T14:29:43.992Z,1808
2017-02-17T14:30:53.747Z,2096
2017-02-17T14:32:03.142Z,2240
2017-02-17T14:33:12.144Z,2644
2017-02-17T14:34:21.483Z,2864
2017-02-17T14:35:30.839Z,3420
2017-02-17T14:36:40.586Z,3332
2017-02-17T14:37:49.927Z,3296
2017-02-17T14:38:59.561Z,3580
2017-02-17T14:40:08.578Z,2964
2017-02-17T14:41:17.898Z,2496
2017-02-17T14:42:28.042Z,2444
2017-02-17T14:43:37.374Z,2120
2017-02-17T14:44:48.039Z,1856
2017-02-17T14:45:57.410Z,1724
2017-02-17T14:47:06.759Z,1508
2017-02-17T14:48:16.493Z,1356
2017-02-17T14:49:25.428Z,1180
2017-02-17T14:50:35.222Z,1264
2017-02-17T14:51:44.176Z,1584
2017-02-17T14:52:53.535Z,2044
2017-02-17T14:54:03.323Z,2124
2017-02-17T14:55:12.678Z,1712
2017-02-17T14:56:21.783Z,1736
2017-02-17T14:57:31.109Z,1704
2017-02-17T14:58:40.448Z,1716
2017-02-17T14:59:50.192Z,1824
2017-02-17T15:00:59.537Z,1516
2017-02-17T15:02:09.324Z,1480
2017-02-17T15:03:19.057Z,1132
2017-02-17T15:04:28.382Z,1044
2017-02-17T15:05:38.118Z,852
2017-02-17T15:06:47.465Z,868
2017-02-17T15:07:57.454Z,876
2017-02-17T15:09:07.212Z,820
2017-02-17T15:10:16.937Z,928
2017-02-17T15:11:26.256Z,1080
2017-02-17T15:12:36.051Z,984
2017-02-17T15:13:45.911Z,840
2017-02-17T15:14:55.241Z,776
2017-02-17T15:16:04.587Z,704
2017-02-17T15:17:14.316Z,600
2017-02-17T15:18:23.649Z,516
2017-02-17T15:19:33.536Z,464
2017-02-17T15:20:42.477Z,460
2017-02-17T15:21:51.834Z,460
2017-02-17T15:23:01.584Z,492
2017-02-17T15:24:11.319Z,504
2017-02-17T15:25:21.348Z,612
2017-02-17T15:26:31.098Z,728
2017-02-17T15:27:40.830Z,808
2017-02-17T15:28:50.575Z,928
2017-02-17T15:30:00.314Z,872
2017-02-17T15:31:10.350Z,1072
2017-02-17T15:32:19.725Z,1320
2017-02-17T15:33:29.494Z,1444
2017-02-17T15:34:39.242Z,1004
2017-02-17T15:35:49.398Z,744
2017-02-17T15:36:58.503Z,536
2017-02-17T15:38:08.659Z,448
2017-02-17T15:39:18.020Z,468
2017-02-17T15:40:27.353Z,400
2017-02-17T15:41:37.488Z,424
2017-02-17T15:42:46.968Z,424
2017-02-17T15:43:56.306Z,420
2017-02-17T15:45:05.272Z,416
2017-02-17T15:46:14.208Z,468
2017-02-17T15:47:23.977Z,436
2017-02-17T15:48:33.871Z,492
2017-02-17T15:49:42.804Z,548
2017-02-17T15:50:51.728Z,504
2017-02-17T15:52:01.899Z,436
2017-02-17T15:53:11.661Z,504
2017-02-17T15:54:21.484Z,492
2017-02-17T15:55:30.818Z,520
2017-02-17T15:56:40.185Z,472
2017-02-17T15:57:49.536Z,384
2017-02-17T15:58:59.680Z,344
2017-02-17T16:00:09.836Z,308
2017-02-17T16:01:19.165Z,288
2017-02-17T16:02:29.732Z,336
2017-02-17T16:03:39.478Z,340
2017-02-17T16:04:48.386Z,320
2017-02-17T16:05:58.221Z,288
2017-02-17T16:07:07.155Z,248
2017-02-17T16:08:16.521Z,240